Lee, ME (04455)

9:50 AM EDT on June 24, 2017 (GMT -0400)
Center Pond | | Change Station

Elev 305 ft 45.38 °N, 68.46 °W | Updated 10 seconds ago

Rain
Rain
68.9 °F
Feels Like 68.9 °F
N
0.0
Wind Variable Wind from SSW
Gusts 3.2 mph

Today
High -- | Low -- °F
--% Chance of Precip.
Yesterday
High -- | Low -- °F
Precip. -- in
Pressure 29.44 in
Visibility 9.0 miles
Clouds Scattered Clouds 500 ft
Mostly Cloudy 5500 ft
Overcast 12000 ft
Dew Point 69 °F
Humidity 99%
Rainfall 0.68 in
Snow Depth Not available.
4:45 AM 8:25 PM
New Moon, 0% visible
SPECI KMLT 241342Z AUTO 00000KT 9SM -RA SCT005 BKN055 OVC120 20/20 A2944 RMK AO2 RAE29B31 P0000 T02000200 TSNO
Pressure 29.44 in
Visibility 9.0 miles
Clouds Scattered Clouds 500 ft
Mostly Cloudy 5500 ft
Overcast 12000 ft
Dew Point 69 °F
Humidity 99%
Rainfall 0.68 in
Snow Depth Not available.
4:45 AM 8:25 PM
New Moon, 0% visible
SPECI KMLT 241342Z AUTO 00000KT 9SM -RA SCT005 BKN055 OVC120 20/20 A2944 RMK AO2 RAE29B31 P0000 T02000200 TSNO

Get Severe Weather Alerts

Thanks for signing up!

Be on the lookout for a verification email in your inbox.

You'll start receiving the daily forecast at 6 AM.

×

10-Day Weather Forecast

Almanac

Astronomy

Jun. 24, 2017 Rise Set
Actual Time
Civil Twilight
Nautical Twilight
Astronomical Twilight
Moon
Length of Visible Light
Length of Day
Tomorrow will be .
, % of the Moon is Illuminated

Today's Extremes

State Highs State Lows

Community

WunderPhotos

Category 6

Welcome to Category 6. This is the collective home for Weather Underground's featured writeups by Dr. Jeff Masters (right), Bob Henson (left), Chris Burt, and other regular contributors.

Nearby

Air Quality

  Air Quality AQ Index Pollutant
Not available.

Snow Depth

Station Depth Elevation

Earthquake Activity

City Distance Mag. Time & Date
Minimum magnitude displayed is 2.5.

Coastal Water Temperatures

Place Temperature

Stations

Nearby Weather Stations

Station Location Temp. Windchill Dew Point Humidity Wind Precip. Elev Updated Type
                   

Watches & Warnings

There are currently no watches in effect.